CCM38BI LFKJ-LFMN
Flight info
| Callsign | CCM38BI |
|---|---|
| Flight time | 0h 46m |
| Altitude | 13000 |
| Route | LONSU |
| Aircraft | AT76/M-SDFGIRY/S |
Departure
| Time | 2026-04-11 10:24 |
|---|---|
| Airport | Ajaccio Napoléon Bonaparte airport (LFKJ) |
Arrival
| Time | 2026-04-11 11:10 |
|---|---|
| Airport | Nice-Côte d'Azur Airport (LFMN) |
| Time | Latitude | Longitude | Altitude | Speed | Heading |
|---|---|---|---|---|---|
| 2026-04-11 09:53 | 41.91798 | 8.79475 | 23 ft | 0 kts | 345° |
| 2026-04-11 10:19 | 41.91799 | 8.79476 | 23 ft | 0 kts | 3° |
| 2026-04-11 10:19 | 41.91797 | 8.79487 | 26 ft | 3 kts | 109° |
| 2026-04-11 10:19 | 41.91812 | 8.79553 | 24 ft | 14 kts | 37° |
| 2026-04-11 10:19 | 41.91908 | 8.79614 | 23 ft | 16 kts | 25° |
| 2026-04-11 10:20 | 41.92007 | 8.79677 | 25 ft | 16 kts | 25° |
| 2026-04-11 10:20 | 41.92108 | 8.79739 | 23 ft | 16 kts | 25° |
| 2026-04-11 10:20 | 41.92208 | 8.79800 | 23 ft | 16 kts | 24° |
| 2026-04-11 10:20 | 41.92309 | 8.79863 | 23 ft | 16 kts | 24° |
| 2026-04-11 10:21 | 41.92408 | 8.79926 | 23 ft | 16 kts | 25° |
| 2026-04-11 10:21 | 41.92511 | 8.79989 | 23 ft | 17 kts | 24° |
| 2026-04-11 10:21 | 41.92618 | 8.80055 | 23 ft | 17 kts | 25° |
| 2026-04-11 10:21 | 41.92725 | 8.80124 | 23 ft | 17 kts | 28° |
| 2026-04-11 10:22 | 41.92816 | 8.80213 | 23 ft | 15 kts | 50° |
| 2026-04-11 10:22 | 41.92801 | 8.80337 | 26 ft | 14 kts | 117° |
| 2026-04-11 10:22 | 41.92758 | 8.80448 | 24 ft | 12 kts | 134° |
| 2026-04-11 10:22 | 41.92712 | 8.80446 | 22 ft | 0 kts | 203° |
| 2026-04-11 10:23 | 41.92647 | 8.80405 | 23 ft | 35 kts | 206° |
| 2026-04-11 10:23 | 41.92249 | 8.80159 | 18 ft | 91 kts | 204° |
| 2026-04-11 10:23 | 41.91561 | 8.79723 | 131 ft | 118 kts | 207° |
| 2026-04-11 10:23 | 41.90815 | 8.79243 | 599 ft | 119 kts | 209° |
| 2026-04-11 10:24 | 41.90211 | 8.78473 | 1018 ft | 122 kts | 236° |
| 2026-04-11 10:24 | 41.89941 | 8.77354 | 1217 ft | 135 kts | 261° |
| 2026-04-11 10:24 | 41.89620 | 8.76045 | 1171 ft | 162 kts | 241° |
| 2026-04-11 10:24 | 41.89010 | 8.74727 | 1423 ft | 169 kts | 236° |
| 2026-04-11 10:25 | 41.88387 | 8.73381 | 1756 ft | 172 kts | 241° |
| 2026-04-11 10:25 | 41.87755 | 8.71995 | 2063 ft | 175 kts | 237° |
| 2026-04-11 10:25 | 41.87111 | 8.70602 | 2384 ft | 176 kts | 245° |
| 2026-04-11 10:25 | 41.86521 | 8.69155 | 2711 ft | 177 kts | 238° |
| 2026-04-11 10:26 | 41.85838 | 8.67777 | 3029 ft | 177 kts | 238° |
| 2026-04-11 10:26 | 41.85272 | 8.66311 | 3325 ft | 178 kts | 241° |
| 2026-04-11 10:26 | 41.84597 | 8.64909 | 3637 ft | 180 kts | 238° |
| 2026-04-11 10:26 | 41.83908 | 8.63510 | 3980 ft | 180 kts | 239° |
| 2026-04-11 10:27 | 41.83257 | 8.62080 | 4310 ft | 178 kts | 245° |
| 2026-04-11 10:27 | 41.83156 | 8.60483 | 4587 ft | 176 kts | 294° |
| 2026-04-11 10:27 | 41.84860 | 8.58285 | 5241 ft | 176 kts | 324° |
| 2026-04-11 10:28 | 41.85910 | 8.57431 | 5569 ft | 177 kts | 330° |
| 2026-04-11 10:28 | 41.87005 | 8.56721 | 5893 ft | 177 kts | 334° |
| 2026-04-11 10:28 | 41.88140 | 8.56070 | 6221 ft | 177 kts | 335° |
| 2026-04-11 10:28 | 41.89280 | 8.55433 | 6529 ft | 178 kts | 335° |
| 2026-04-11 10:29 | 41.90417 | 8.54780 | 6814 ft | 178 kts | 334° |
| 2026-04-11 10:29 | 41.91554 | 8.54111 | 7089 ft | 179 kts | 334° |
| 2026-04-11 10:29 | 41.92696 | 8.53436 | 7359 ft | 180 kts | 334° |
| 2026-04-11 10:29 | 41.93845 | 8.52756 | 7626 ft | 181 kts | 334° |
| 2026-04-11 10:30 | 41.94997 | 8.52072 | 7901 ft | 181 kts | 334° |
| 2026-04-11 10:30 | 41.96153 | 8.51386 | 8181 ft | 182 kts | 334° |
| 2026-04-11 10:30 | 41.97313 | 8.50699 | 8456 ft | 183 kts | 334° |
| 2026-04-11 10:30 | 41.98478 | 8.50007 | 8727 ft | 184 kts | 334° |
| 2026-04-11 10:31 | 41.99649 | 8.49312 | 8998 ft | 184 kts | 334° |
| 2026-04-11 10:31 | 42.00823 | 8.48617 | 9266 ft | 185 kts | 334° |
| 2026-04-11 10:31 | 42.02002 | 8.47917 | 9527 ft | 185 kts | 334° |
| 2026-04-11 10:31 | 42.03182 | 8.47215 | 9796 ft | 186 kts | 334° |
| 2026-04-11 10:32 | 42.04366 | 8.46512 | 10049 ft | 187 kts | 334° |
| 2026-04-11 10:32 | 42.05557 | 8.45802 | 10274 ft | 188 kts | 334° |
| 2026-04-11 10:32 | 42.06754 | 8.45090 | 10504 ft | 189 kts | 334° |
| 2026-04-11 10:32 | 42.07957 | 8.44375 | 10729 ft | 190 kts | 334° |
| 2026-04-11 10:33 | 42.09165 | 8.43654 | 10964 ft | 190 kts | 334° |
| 2026-04-11 10:33 | 42.10379 | 8.42933 | 11176 ft | 191 kts | 334° |
| 2026-04-11 10:33 | 42.11595 | 8.42206 | 11395 ft | 192 kts | 334° |
| 2026-04-11 10:33 | 42.12818 | 8.41478 | 11604 ft | 193 kts | 334° |
| 2026-04-11 10:34 | 42.14046 | 8.40746 | 11829 ft | 194 kts | 334° |
| 2026-04-11 10:34 | 42.15281 | 8.40008 | 12050 ft | 195 kts | 334° |
| 2026-04-11 10:34 | 42.16522 | 8.39266 | 12266 ft | 195 kts | 334° |
| 2026-04-11 10:34 | 42.17765 | 8.38525 | 12490 ft | 196 kts | 334° |
| 2026-04-11 10:35 | 42.19014 | 8.37778 | 12707 ft | 197 kts | 334° |
| 2026-04-11 10:35 | 42.20270 | 8.37027 | 12885 ft | 199 kts | 334° |
| 2026-04-11 10:35 | 42.21558 | 8.36259 | 12963 ft | 206 kts | 334° |
| 2026-04-11 10:35 | 42.22889 | 8.35462 | 13000 ft | 213 kts | 334° |
| 2026-04-11 10:36 | 42.24267 | 8.34635 | 13017 ft | 220 kts | 334° |
| 2026-04-11 10:36 | 42.25670 | 8.33794 | 13026 ft | 226 kts | 334° |
| 2026-04-11 10:36 | 42.27125 | 8.32921 | 13028 ft | 231 kts | 334° |
| 2026-04-11 10:36 | 42.28609 | 8.32031 | 13024 ft | 235 kts | 334° |
| 2026-04-11 10:37 | 42.30118 | 8.31126 | 13025 ft | 239 kts | 334° |
| 2026-04-11 10:37 | 42.31663 | 8.30199 | 13024 ft | 241 kts | 334° |
| 2026-04-11 10:37 | 42.33203 | 8.29275 | 13025 ft | 243 kts | 334° |
| 2026-04-11 10:37 | 42.34734 | 8.28355 | 13025 ft | 245 kts | 334° |
| 2026-04-11 10:38 | 42.36312 | 8.27406 | 13028 ft | 246 kts | 334° |
| 2026-04-11 10:38 | 42.37859 | 8.26475 | 13027 ft | 247 kts | 334° |
| 2026-04-11 10:38 | 42.41004 | 8.24584 | 13024 ft | 248 kts | 334° |
| 2026-04-11 10:39 | 42.42581 | 8.23635 | 13026 ft | 248 kts | 334° |
| 2026-04-11 10:39 | 42.44157 | 8.22685 | 13026 ft | 248 kts | 334° |
| 2026-04-11 10:39 | 42.45737 | 8.21731 | 13023 ft | 248 kts | 334° |
| 2026-04-11 10:39 | 42.47315 | 8.20779 | 13025 ft | 248 kts | 334° |
| 2026-04-11 10:40 | 42.48894 | 8.19826 | 13027 ft | 249 kts | 334° |
| 2026-04-11 10:40 | 42.50474 | 8.18874 | 13021 ft | 248 kts | 334° |
| 2026-04-11 10:40 | 42.52051 | 8.17920 | 13028 ft | 248 kts | 334° |
| 2026-04-11 10:40 | 42.53629 | 8.16965 | 13026 ft | 248 kts | 334° |
| 2026-04-11 10:41 | 42.55209 | 8.16010 | 13027 ft | 248 kts | 334° |
| 2026-04-11 10:41 | 42.56785 | 8.15054 | 13029 ft | 248 kts | 334° |
| 2026-04-11 10:41 | 42.58362 | 8.14098 | 13025 ft | 248 kts | 334° |
| 2026-04-11 10:41 | 42.59942 | 8.13144 | 13026 ft | 248 kts | 334° |
| 2026-04-11 10:42 | 42.61517 | 8.12191 | 13026 ft | 248 kts | 334° |
| 2026-04-11 10:42 | 42.63091 | 8.11234 | 13027 ft | 248 kts | 334° |
| 2026-04-11 10:42 | 42.64664 | 8.10278 | 13033 ft | 248 kts | 334° |
| 2026-04-11 10:42 | 42.66239 | 8.09320 | 13030 ft | 248 kts | 334° |
| 2026-04-11 10:43 | 42.69387 | 8.07408 | 13031 ft | 248 kts | 334° |
| 2026-04-11 10:43 | 42.70960 | 8.06449 | 13027 ft | 248 kts | 334° |
| 2026-04-11 10:43 | 42.72530 | 8.05494 | 13029 ft | 247 kts | 334° |
| 2026-04-11 10:44 | 42.74103 | 8.04536 | 13032 ft | 247 kts | 334° |
| 2026-04-11 10:44 | 42.75673 | 8.03578 | 13028 ft | 247 kts | 333° |
| 2026-04-11 10:44 | 42.77242 | 8.02625 | 13029 ft | 246 kts | 335° |
| 2026-04-11 10:44 | 42.78927 | 8.02313 | 13032 ft | 250 kts | 1° |
| 2026-04-11 10:45 | 42.80646 | 8.02625 | 13029 ft | 253 kts | 5° |
| 2026-04-11 10:45 | 42.82397 | 8.03012 | 13029 ft | 253 kts | 6° |
| 2026-04-11 10:45 | 42.84141 | 8.03377 | 13029 ft | 254 kts | 4° |
| 2026-04-11 10:45 | 42.85890 | 8.03669 | 13032 ft | 253 kts | 2° |
| 2026-04-11 10:46 | 42.87642 | 8.03920 | 13032 ft | 253 kts | 2° |
| 2026-04-11 10:46 | 42.89370 | 8.04176 | 13033 ft | 253 kts | 3° |
| 2026-04-11 10:46 | 42.91122 | 8.04439 | 13034 ft | 253 kts | 2° |
| 2026-04-11 10:46 | 42.92873 | 8.04699 | 13033 ft | 253 kts | 2° |
| 2026-04-11 10:47 | 42.94650 | 8.04965 | 13031 ft | 253 kts | 2° |
| 2026-04-11 10:47 | 42.96400 | 8.05227 | 13032 ft | 253 kts | 2° |
| 2026-04-11 10:47 | 42.98129 | 8.05487 | 13034 ft | 253 kts | 2° |
| 2026-04-11 10:47 | 42.99881 | 8.05750 | 13032 ft | 253 kts | 2° |
| 2026-04-11 10:48 | 43.01629 | 8.06013 | 13032 ft | 253 kts | 2° |
| 2026-04-11 10:48 | 43.03380 | 8.06276 | 13035 ft | 253 kts | 2° |
| 2026-04-11 10:48 | 43.05130 | 8.06539 | 13036 ft | 253 kts | 2° |
| 2026-04-11 10:48 | 43.06879 | 8.06803 | 13034 ft | 253 kts | 2° |
| 2026-04-11 10:49 | 43.08626 | 8.07063 | 13038 ft | 253 kts | 2° |
| 2026-04-11 10:49 | 43.10374 | 8.07327 | 13034 ft | 253 kts | 3° |
| 2026-04-11 10:49 | 43.12123 | 8.07591 | 13036 ft | 253 kts | 2° |
| 2026-04-11 10:49 | 43.13872 | 8.07854 | 13033 ft | 253 kts | 2° |
| 2026-04-11 10:50 | 43.15621 | 8.08119 | 13033 ft | 253 kts | 2° |
| 2026-04-11 10:50 | 43.17368 | 8.08382 | 13037 ft | 253 kts | 2° |
| 2026-04-11 10:50 | 43.19117 | 8.08647 | 13038 ft | 253 kts | 2° |
| 2026-04-11 10:50 | 43.20862 | 8.08909 | 13040 ft | 252 kts | 2° |
| 2026-04-11 10:51 | 43.22609 | 8.09174 | 13036 ft | 252 kts | 2° |
| 2026-04-11 10:51 | 43.24353 | 8.09437 | 13039 ft | 252 kts | 2° |
| 2026-04-11 10:51 | 43.26099 | 8.09701 | 13037 ft | 252 kts | 2° |
| 2026-04-11 10:51 | 43.27842 | 8.09948 | 13038 ft | 250 kts | 359° |
| 2026-04-11 10:52 | 43.29477 | 8.09398 | 13044 ft | 242 kts | 326° |
| 2026-04-11 10:52 | 43.30770 | 8.07946 | 13040 ft | 240 kts | 314° |
| 2026-04-11 10:52 | 43.31833 | 8.06184 | 13042 ft | 240 kts | 305° |
| 2026-04-11 10:52 | 43.32703 | 8.04224 | 13040 ft | 241 kts | 300° |
| 2026-04-11 10:53 | 43.33498 | 8.02200 | 13040 ft | 241 kts | 298° |
| 2026-04-11 10:53 | 43.34283 | 8.00162 | 13039 ft | 241 kts | 298° |
| 2026-04-11 10:53 | 43.35078 | 7.98133 | 13039 ft | 241 kts | 300° |
| 2026-04-11 10:53 | 43.35901 | 7.96119 | 13039 ft | 242 kts | 300° |
| 2026-04-11 10:54 | 43.36738 | 7.94080 | 12878 ft | 249 kts | 300° |
| 2026-04-11 10:54 | 43.37603 | 7.91972 | 12590 ft | 258 kts | 300° |
| 2026-04-11 10:54 | 43.38508 | 7.89800 | 12328 ft | 264 kts | 300° |
| 2026-04-11 10:54 | 43.39422 | 7.87588 | 12086 ft | 268 kts | 300° |
| 2026-04-11 10:55 | 43.40346 | 7.85333 | 11828 ft | 272 kts | 300° |
| 2026-04-11 10:55 | 43.41275 | 7.83085 | 11580 ft | 266 kts | 300° |
| 2026-04-11 10:55 | 43.41848 | 7.80729 | 11327 ft | 261 kts | 279° |
| 2026-04-11 10:55 | 43.41986 | 7.78223 | 11088 ft | 264 kts | 274° |
| 2026-04-11 10:56 | 43.42068 | 7.75699 | 10843 ft | 265 kts | 274° |
| 2026-04-11 10:56 | 43.42168 | 7.73163 | 10606 ft | 266 kts | 275° |
| 2026-04-11 10:56 | 43.42316 | 7.70630 | 10361 ft | 265 kts | 276° |
| 2026-04-11 10:56 | 43.42487 | 7.68123 | 10129 ft | 262 kts | 276° |
| 2026-04-11 10:57 | 43.42648 | 7.65641 | 9883 ft | 259 kts | 276° |
| 2026-04-11 10:57 | 43.42809 | 7.63183 | 9628 ft | 258 kts | 276° |
| 2026-04-11 10:57 | 43.42963 | 7.60766 | 9372 ft | 256 kts | 276° |
| 2026-04-11 10:57 | 43.43122 | 7.58332 | 9110 ft | 255 kts | 276° |
| 2026-04-11 10:58 | 43.43276 | 7.55908 | 8857 ft | 254 kts | 276° |
| 2026-04-11 10:58 | 43.43431 | 7.53493 | 8601 ft | 253 kts | 276° |
| 2026-04-11 10:58 | 43.43563 | 7.51428 | 8388 ft | 253 kts | 276° |
| 2026-04-11 10:58 | 43.43717 | 7.49024 | 8138 ft | 252 kts | 276° |
| 2026-04-11 10:59 | 43.43868 | 7.46623 | 7892 ft | 251 kts | 275° |
| 2026-04-11 10:59 | 43.44019 | 7.44228 | 7647 ft | 251 kts | 275° |
| 2026-04-11 10:59 | 43.44170 | 7.41836 | 7402 ft | 251 kts | 275° |
| 2026-04-11 10:59 | 43.44321 | 7.39444 | 7163 ft | 251 kts | 275° |
| 2026-04-11 11:00 | 43.44474 | 7.37051 | 6923 ft | 251 kts | 275° |
| 2026-04-11 11:00 | 43.44638 | 7.34661 | 6681 ft | 251 kts | 275° |
| 2026-04-11 11:00 | 43.44808 | 7.32271 | 6439 ft | 251 kts | 275° |
| 2026-04-11 11:00 | 43.44965 | 7.29883 | 6209 ft | 250 kts | 275° |
| 2026-04-11 11:01 | 43.45117 | 7.27503 | 5981 ft | 249 kts | 274° |
| 2026-04-11 11:01 | 43.45263 | 7.25127 | 5764 ft | 249 kts | 274° |
| 2026-04-11 11:01 | 43.45409 | 7.22751 | 5537 ft | 250 kts | 274° |
| 2026-04-11 11:01 | 43.45555 | 7.20371 | 5309 ft | 250 kts | 274° |
| 2026-04-11 11:02 | 43.45700 | 7.17986 | 5090 ft | 250 kts | 274° |
| 2026-04-11 11:02 | 43.45842 | 7.15601 | 4870 ft | 250 kts | 274° |
| 2026-04-11 11:02 | 43.45979 | 7.13232 | 4638 ft | 244 kts | 274° |
| 2026-04-11 11:02 | 43.46110 | 7.10940 | 4408 ft | 237 kts | 274° |
| 2026-04-11 11:03 | 43.46234 | 7.08714 | 4214 ft | 229 kts | 274° |
| 2026-04-11 11:03 | 43.46347 | 7.06580 | 4123 ft | 218 kts | 274° |
| 2026-04-11 11:03 | 43.46534 | 7.04592 | 4085 ft | 202 kts | 290° |
| 2026-04-11 11:03 | 43.47235 | 7.03004 | 4067 ft | 189 kts | 304° |
| 2026-04-11 11:04 | 43.47957 | 7.01566 | 4060 ft | 177 kts | 304° |
| 2026-04-11 11:04 | 43.48672 | 7.00243 | 4048 ft | 167 kts | 315° |
| 2026-04-11 11:04 | 43.49714 | 6.99760 | 4032 ft | 161 kts | 8° |
| 2026-04-11 11:04 | 43.50630 | 7.00520 | 4019 ft | 155 kts | 45° |
| 2026-04-11 11:05 | 43.51408 | 7.01632 | 3789 ft | 165 kts | 47° |
| 2026-04-11 11:05 | 43.52186 | 7.02766 | 3569 ft | 161 kts | 45° |
| 2026-04-11 11:05 | 43.52968 | 7.03813 | 3367 ft | 158 kts | 44° |
| 2026-04-11 11:05 | 43.53768 | 7.04870 | 3155 ft | 155 kts | 44° |
| 2026-04-11 11:06 | 43.54518 | 7.05894 | 2948 ft | 153 kts | 45° |
| 2026-04-11 11:06 | 43.55265 | 7.06917 | 2751 ft | 150 kts | 45° |
| 2026-04-11 11:06 | 43.56006 | 7.07923 | 2551 ft | 148 kts | 44° |
| 2026-04-11 11:06 | 43.56738 | 7.08916 | 2356 ft | 147 kts | 44° |
| 2026-04-11 11:07 | 43.57462 | 7.09898 | 2164 ft | 145 kts | 45° |
| 2026-04-11 11:07 | 43.58174 | 7.10869 | 1973 ft | 142 kts | 45° |
| 2026-04-11 11:07 | 43.58839 | 7.11781 | 1796 ft | 126 kts | 45° |
| 2026-04-11 11:07 | 43.59448 | 7.12603 | 1630 ft | 123 kts | 45° |
| 2026-04-11 11:08 | 43.60049 | 7.13417 | 1461 ft | 120 kts | 45° |
| 2026-04-11 11:08 | 43.60640 | 7.14229 | 1302 ft | 119 kts | 45° |
| 2026-04-11 11:08 | 43.61234 | 7.15017 | 1146 ft | 118 kts | 38° |
| 2026-04-11 11:08 | 43.61843 | 7.15776 | 984 ft | 117 kts | 44° |
| 2026-04-11 11:09 | 43.62422 | 7.16575 | 806 ft | 119 kts | 45° |
| 2026-04-11 11:09 | 43.63000 | 7.17363 | 675 ft | 117 kts | 45° |
| 2026-04-11 11:09 | 43.63566 | 7.18170 | 513 ft | 118 kts | 46° |
| 2026-04-11 11:09 | 43.64149 | 7.18961 | 369 ft | 117 kts | 44° |
| 2026-04-11 11:10 | 43.64533 | 7.19487 | 250 ft | 118 kts | 47° |
| 2026-04-11 11:10 | 43.65111 | 7.20303 | 70 ft | 118 kts | 48° |
| 2026-04-11 11:10 | 43.65652 | 7.21052 | 14 ft | 91 kts | 45° |
| 2026-04-11 11:10 | 43.65986 | 7.21514 | 12 ft | 48 kts | 44° |
| 2026-04-11 11:11 | 43.66148 | 7.21734 | 13 ft | 17 kts | 40° |
| 2026-04-11 11:11 | 43.66229 | 7.21732 | 11 ft | 15 kts | 316° |
| 2026-04-11 11:11 | 43.66305 | 7.21630 | 9 ft | 16 kts | 315° |
| 2026-04-11 11:11 | 43.66371 | 7.21516 | 8 ft | 14 kts | 279° |
| 2026-04-11 11:12 | 43.66367 | 7.21479 | 8 ft | 3 kts | 242° |
| 2026-04-11 11:12 | 43.66348 | 7.21461 | 8 ft | 4 kts | 215° |
| 2026-04-11 11:12 | 43.66332 | 7.21462 | 8 ft | 2 kts | 152° |
| 2026-04-11 11:12 | 43.66319 | 7.21479 | 9 ft | 3 kts | 135° |
| 2026-04-11 11:13 | 43.66306 | 7.21498 | 9 ft | 1 kts | 135° |
| 2026-04-11 11:13 | 43.66304 | 7.21500 | 9 ft | 0 kts | 135° |